Airfield :
LOGIN :

Register | Disclaimer

   EN    FR    IT 

 










Legend :    VFR   Marginal VFR   IFR   Intensive IFR   Very Intensive IFR
Visi :
Ceiling :
>= 8 km
>= 3000ft
5 to 8 km
1000 to 3000 ft
1500m to 5 km
500 to 1000 ft
800 to 1500m
200 to 500 ft
< 800m
< 200 ft
Symbols :   Thunderstorms  Fog  Heavy snow  Heavy precipitations  Wind > 20 kt
SIGMETs :     Misc.  Thunderstorms  Icing  Turbulence  Mountain Waves  Volcanic Ashes






- Airport Elevation : 277 ft
- IATA code : JER


EGJJ - Jersey

CURRENT METAR :
  • 082050Z 26034G50KT 9999 VCSH FEW025CB SCT029 09/06 Q1004

EXPIRED METARs :
  • 082020Z 25030G43KT 9999 VCSH FEW025CB SCT028 10/06 Q1004 RESHRA
  • 081950Z 26029G39KT 9999 +SHRA SCT023CB BKN030 10/06 Q1005
  • 081920Z 26030G41KT 9999 -SHRA FEW023CB SCT028 09/06 Q1005
  • 081850Z 26029G42KT 9999 -SHRA FEW020CB SCT026 10/06 Q1005
  • 081820Z 26027KT 9999 VCSH FEW020CB SCT026 10/06 Q1006

TAF AMD TAF EGJJ
Valid from the 08 at 21:00 until the 09 at 06:00 UTC


082039Z 0821/0906 26033G47KT 9999 FEW020CB SCT030
TEMPO 0821/0906 27038G57KT 6000 SHRA BKN015CB
PROB30
TEMPO 0821/0906 2000 +TSRA BKN010CB
BECMG 0902/0904 29035G50KT
ATIS : +44 1534 498 073



MET'MAP, your aeronautical weather chart ! - Copyright ORBIFLY December 2007 - Disclaimer

ORBIFLY MET'MAP TEAM :

Programming & Development : Alexandra Zaïnal
Concept & original design : Baudouin d'Aumeries
Assistance for programming : Marc-Olivier Méhu
Technical & hardware support : Manuel Goepfert

Contact : metmap@orbifly.com




SOURCES & CREDITS :

   NOAA